Time;durP1;ratioP1;P1;durP2;ratioP2;P2;SDS_P1;SDS_P2;PMS_P1;PMS_P2;Temp;Humidity;BMP_temperature;BMP_pressure;BME280_temperature;BME280_humidity;BME280_pressure;Samples;Min_cycle;Max_cycle;Signal;HPM_P1;HPM_P2
2024/02/13 00:01:51;;;;;;;9.00;4.32;;;4.60;99.90;;;;;;4913329;28;20050;-79
2024/02/13 00:04:20;;;;;;;16.83;6.25;;;4.60;99.90;;;;;;4925258;28;20114;-78
2024/02/13 00:06:45;;;;;;;11.05;4.97;;;4.60;99.90;;;;;;4943328;28;20059;-78
2024/02/13 00:09:11;;;;;;;8.63;4.22;;;4.60;99.90;;;;;;4943329;28;20532;-78
2024/02/13 00:11:37;;;;;;;14.82;7.10;;;4.60;99.90;;;;;;4914418;28;20083;-78
2024/02/13 00:14:02;;;;;;;14.30;4.93;;;4.50;99.90;;;;;;4939873;28;20090;-78
2024/02/13 00:16:28;;;;;;;15.30;4.82;;;4.60;99.90;;;;;;4911317;28;20506;-78
2024/02/13 00:18:54;;;;;;;10.85;3.50;;;4.70;99.90;;;;;;4926286;28;20461;-77
2024/02/13 00:21:19;;;;;;;15.93;7.47;;;4.70;99.90;;;;;;4925016;28;20031;-79
2024/02/13 00:23:46;;;;;;;17.15;8.30;;;4.70;99.90;;;;;;4923927;28;20575;-78
2024/02/13 00:26:11;;;;;;;8.40;3.45;;;4.60;99.90;;;;;;4922453;28;20043;-78
2024/02/13 00:28:37;;;;;;;18.05;6.38;;;4.50;99.90;;;;;;4924374;28;20070;-78
2024/02/13 00:31:04;;;;;;;18.38;7.68;;;4.50;99.90;;;;;;4921402;28;20508;-78
2024/02/13 00:33:40;;;;;;;9.00;4.70;;;4.50;99.90;;;;;;4924208;28;20032;-78
2024/02/13 00:36:07;;;;;;;13.48;6.25;;;4.40;99.90;;;;;;4941885;28;20461;-78
2024/02/13 00:38:32;;;;;;;16.60;5.80;;;4.40;99.90;;;;;;4922011;28;20527;-78
2024/02/13 00:40:58;;;;;;;12.30;5.05;;;4.40;99.90;;;;;;4939781;28;20032;-78
2024/02/13 00:43:24;;;;;;;10.32;5.75;;;4.30;99.90;;;;;;4913815;28;20405;-79
2024/02/13 00:45:49;;;;;;;18.58;5.53;;;4.40;99.90;;;;;;4941126;28;20231;-78
2024/02/13 00:48:18;;;;;;;18.90;8.00;;;4.40;99.90;;;;;;4908495;28;20066;-78
2024/02/13 00:50:44;;;;;;;11.32;6.03;;;4.40;99.90;;;;;;4939297;28;20494;-78
2024/02/13 00:53:10;;;;;;;21.13;8.25;;;4.50;99.90;;;;;;4920234;28;20032;-78
2024/02/13 00:55:37;;;;;;;14.10;7.05;;;4.50;99.90;;;;;;4923705;28;20512;-78
2024/02/13 00:58:02;;;;;;;13.65;5.88;;;4.40;99.90;;;;;;4921480;28;20592;-78
2024/02/13 01:00:28;;;;;;;11.00;7.03;;;4.40;99.90;;;;;;4935563;28;20051;-78
2024/02/13 01:02:55;;;;;;;12.25;5.90;;;4.40;99.90;;;;;;4942287;28;20110;-78
2024/02/13 01:05:21;;;;;;;18.70;9.68;;;4.40;99.90;;;;;;4925270;28;20040;-78
2024/02/13 01:07:47;;;;;;;19.55;8.43;;;4.30;99.90;;;;;;4927164;28;20031;-78
2024/02/13 01:10:15;;;;;;;13.48;6.47;;;4.30;99.90;;;;;;4938612;28;20039;-78
2024/02/13 01:12:41;;;;;;;17.13;8.35;;;4.30;99.90;;;;;;4924432;28;20058;-78
2024/02/13 01:15:07;;;;;;;16.60;7.18;;;4.40;99.90;;;;;;4911061;28;20032;-78
2024/02/13 01:17:34;;;;;;;17.23;8.65;;;4.30;99.90;;;;;;4911231;28;20035;-78
2024/02/13 01:20:00;;;;;;;15.43;6.45;;;4.40;99.90;;;;;;4912218;28;20414;-78
2024/02/13 01:22:26;;;;;;;12.93;6.85;;;4.20;99.90;;;;;;4912386;28;20036;-78
2024/02/13 01:24:51;;;;;;;11.40;4.20;;;4.40;99.90;;;;;;4907535;28;20043;-78
2024/02/13 01:27:19;;;;;;;15.98;8.43;;;4.20;99.90;;;;;;4907958;28;20064;-78
2024/02/13 01:29:44;;;;;;;16.85;7.03;;;4.20;99.90;;;;;;4942093;28;20119;-79
2024/02/13 01:32:10;;;;;;;23.23;9.50;;;4.30;99.90;;;;;;4923748;28;20138;-78
2024/02/13 01:34:36;;;;;;;17.33;7.72;;;4.40;99.90;;;;;;4925634;28;20031;-78
2024/02/13 01:37:03;;;;;;;21.65;11.07;;;4.30;99.90;;;;;;4912535;28;20087;-78
2024/02/13 01:39:28;;;;;;;18.50;9.40;;;4.30;99.90;;;;;;4923539;28;20611;-78
2024/02/13 01:41:56;;;;;;;20.15;10.52;;;4.30;99.90;;;;;;4937323;28;20031;-78
2024/02/13 01:44:24;;;;;;;15.70;8.32;;;4.10;99.90;;;;;;4925298;28;20044;-78
2024/02/13 01:46:52;;;;;;;21.05;10.48;;;4.20;99.90;;;;;;4924234;28;20509;-77
2024/02/13 01:49:18;;;;;;;18.02;7.22;;;4.20;99.90;;;;;;4940630;28;20031;-78
2024/02/13 01:51:44;;;;;;;14.40;7.38;;;4.20;99.90;;;;;;4924572;28;20374;-77
2024/02/13 01:54:12;;;;;;;19.67;8.70;;;4.20;99.90;;;;;;4906196;28;20046;-77
2024/02/13 01:56:39;;;;;;;17.20;8.15;;;4.30;99.90;;;;;;4927137;28;20122;-77
2024/02/13 01:59:04;;;;;;;13.27;6.68;;;4.30;99.90;;;;;;4910027;28;20047;-77
2024/02/13 02:01:30;;;;;;;22.13;9.32;;;4.30;99.90;;;;;;4924861;28;20069;-77
2024/02/13 02:03:58;;;;;;;15.18;8.18;;;4.30;99.90;;;;;;4924403;28;20039;-77
2024/02/13 02:06:24;;;;;;;17.00;9.23;;;4.30;99.90;;;;;;4924545;28;20050;-77
2024/02/13 02:08:49;;;;;;;15.98;8.73;;;4.30;99.90;;;;;;4907087;28;20465;-77
2024/02/13 02:11:15;;;;;;;15.82;8.15;;;4.30;99.90;;;;;;4908648;28;20028;-77
2024/02/13 02:13:42;;;;;;;18.45;10.15;;;4.20;99.90;;;;;;4925868;28;20034;-77
2024/02/13 02:16:07;;;;;;;15.30;9.00;;;4.20;99.90;;;;;;4940647;28;20449;-77
2024/02/13 02:18:33;;;;;;;20.42;11.50;;;4.10;99.90;;;;;;4908839;28;20027;-77
2024/02/13 02:20:59;;;;;;;14.98;7.65;;;4.20;99.90;;;;;;4913586;28;20035;-77
2024/02/13 02:23:26;;;;;;;23.85;10.43;;;4.30;99.90;;;;;;4923622;28;20028;-77
2024/02/13 02:25:52;;;;;;;16.35;8.32;;;4.30;99.90;;;;;;4926558;28;20488;-77
2024/02/13 02:28:17;;;;;;;13.73;6.82;;;4.20;99.90;;;;;;4922705;28;20034;-77
2024/02/13 02:30:44;;;;;;;15.25;6.57;;;4.20;99.90;;;;;;4908117;28;20031;-77
2024/02/13 02:33:13;;;;;;;12.20;6.45;;;4.30;99.90;;;;;;4906321;28;20054;-77
2024/02/13 02:35:41;;;;;;;16.20;8.95;;;4.10;99.90;;;;;;4925886;28;20561;-77
2024/02/13 02:38:07;;;;;;;17.42;9.27;;;4.10;99.90;;;;;;4923446;28;20643;-77
2024/02/13 02:40:32;;;;;;;20.42;10.68;;;4.20;99.90;;;;;;4922958;28;20086;-77
2024/02/13 02:42:59;;;;;;;22.55;10.07;;;4.20;99.90;;;;;;4923554;28;20042;-78
2024/02/13 02:45:27;;;;;;;6.13;3.95;;;4.20;99.90;;;;;;4942050;28;20039;-77
2024/02/13 02:47:53;;;;;;;19.05;9.95;;;4.10;99.90;;;;;;4912431;28;20389;-77
2024/02/13 02:50:18;;;;;;;9.75;5.82;;;4.10;99.90;;;;;;4910243;28;20043;-77
2024/02/13 02:52:44;;;;;;;4.22;3.67;;;4.20;99.90;;;;;;4908441;28;20110;-77
2024/02/13 02:55:10;;;;;;;24.33;9.73;;;4.20;99.90;;;;;;4927177;28;20039;-76
2024/02/13 02:57:35;;;;;;;16.42;8.73;;;4.20;99.90;;;;;;4911821;28;20083;-78
2024/02/13 03:00:03;;;;;;;20.83;10.70;;;4.20;99.90;;;;;;4925488;28;20130;-78
2024/02/13 03:02:29;;;;;;;18.55;9.38;;;4.20;99.90;;;;;;4940852;28;20035;-77
2024/02/13 03:04:54;;;;;;;14.73;9.15;;;4.20;99.90;;;;;;4920790;28;20446;-77
2024/02/13 03:07:21;;;;;;;17.92;9.50;;;4.20;99.90;;;;;;4925039;28;20035;-77
2024/02/13 03:09:47;;;;;;;18.40;9.20;;;4.20;99.90;;;;;;4941661;28;20462;-78
2024/02/13 03:12:13;;;;;;;15.15;9.48;;;4.20;99.90;;;;;;4911019;28;20114;-77
2024/02/13 03:14:38;;;;;;;14.52;9.05;;;4.20;99.90;;;;;;4931023;28;20028;-77
2024/02/13 03:17:06;;;;;;;12.52;7.22;;;4.20;99.90;;;;;;4928687;28;20404;-78
2024/02/13 03:19:32;;;;;;;12.55;5.55;;;4.20;99.90;;;;;;4926235;28;20039;-76
2024/02/13 03:21:58;;;;;;;8.70;4.75;;;4.20;99.90;;;;;;4928067;28;20042;-77
2024/02/13 03:24:24;;;;;;;9.38;4.68;;;4.20;99.90;;;;;;4926130;28;20489;-78
2024/02/13 03:26:49;;;;;;;8.07;4.13;;;4.20;99.90;;;;;;4944208;28;20050;-78
2024/02/13 03:29:15;;;;;;;14.15;6.53;;;4.20;99.90;;;;;;4912052;28;20038;-77
2024/02/13 03:31:40;;;;;;;19.33;8.32;;;4.20;99.90;;;;;;4926445;28;20035;-78
2024/02/13 03:34:06;;;;;;;15.73;7.45;;;4.20;99.90;;;;;;4927477;28;20149;-77
2024/02/13 03:36:31;;;;;;;17.30;10.60;;;4.20;99.90;;;;;;4940221;28;20031;-78
2024/02/13 03:38:59;;;;;;;21.20;8.90;;;4.20;99.90;;;;;;4940030;28;20090;-77
2024/02/13 03:41:25;;;;;;;21.20;9.65;;;4.20;99.90;;;;;;4942077;28;20570;-77
2024/02/13 03:43:50;;;;;;;15.55;8.80;;;4.20;99.90;;;;;;4926613;28;20051;-77
2024/02/13 03:46:16;;;;;;;13.25;7.15;;;4.20;99.90;;;;;;4911213;28;20091;-79
2024/02/13 03:48:41;;;;;;;23.10;10.35;;;4.10;99.90;;;;;;4930826;28;20117;-77
2024/02/13 03:51:07;;;;;;;19.33;10.25;;;4.20;99.90;;;;;;4910529;28;20051;-76
2024/02/13 03:53:34;;;;;;;16.23;10.70;;;4.20;99.90;;;;;;4942378;28;20023;-78
2024/02/13 03:56:01;;;;;;;16.35;8.77;;;4.10;99.90;;;;;;4925305;28;20034;-78
2024/02/13 03:58:28;;;;;;;22.60;11.95;;;4.20;99.90;;;;;;4910694;28;20313;-79
2024/02/13 04:00:54;;;;;;;9.27;5.85;;;4.10;99.90;;;;;;4927097;28;20401;-78
2024/02/13 04:03:20;;;;;;;30.40;12.43;;;4.10;99.90;;;;;;4942254;28;20035;-78
2024/02/13 04:05:45;;;;;;;10.15;6.10;;;4.10;99.90;;;;;;4913725;28;20113;-78
2024/02/13 04:08:12;;;;;;;20.58;10.57;;;4.10;99.90;;;;;;4910587;28;20050;-78
2024/02/13 04:10:38;;;;;;;26.88;12.50;;;4.20;99.90;;;;;;4926546;28;20106;-78
2024/02/13 04:13:06;;;;;;;15.82;9.50;;;4.20;99.90;;;;;;4924876;28;20051;-78
2024/02/13 04:15:35;;;;;;;23.73;11.93;;;4.20;99.90;;;;;;4941754;28;20038;-78
2024/02/13 04:18:02;;;;;;;21.92;12.27;;;4.20;99.90;;;;;;4927701;28;20382;-78
2024/02/13 04:20:27;;;;;;;20.95;12.63;;;4.20;99.90;;;;;;4909011;28;20039;-78
2024/02/13 04:22:53;;;;;;;22.77;11.35;;;4.20;99.90;;;;;;4924993;28;20147;-78
2024/02/13 04:25:19;;;;;;;16.67;8.52;;;4.20;99.90;;;;;;4924809;28;20708;-79
2024/02/13 04:27:44;;;;;;;12.82;6.38;;;4.20;99.90;;;;;;4926593;28;20086;-78
2024/02/13 04:30:13;;;;;;;22.83;11.48;;;4.20;99.90;;;;;;4913085;28;20328;-78
2024/02/13 04:32:39;;;;;;;11.13;5.88;;;4.20;99.90;;;;;;4939583;28;20047;-78
2024/02/13 04:35:05;;;;;;;26.40;15.45;;;4.20;99.90;;;;;;4922818;28;20031;-78
2024/02/13 04:37:31;;;;;;;20.67;10.90;;;4.20;99.90;;;;;;4941427;28;20131;-78
2024/02/13 04:39:57;;;;;;;13.30;7.85;;;4.20;99.90;;;;;;4941636;28;20166;-79
2024/02/13 04:42:49;;;;;;;28.00;12.88;;;4.10;99.90;;;;;;4926211;28;20106;-78
2024/02/13 04:45:14;;;;;;;18.73;7.80;;;4.10;99.90;;;;;;4938870;28;20120;-78
2024/02/13 04:47:40;;;;;;;22.95;9.05;;;4.10;99.90;;;;;;4924445;28;20047;-78
2024/02/13 04:50:06;;;;;;;18.83;9.73;;;4.10;99.90;;;;;;4923465;28;20090;-78
2024/02/13 04:52:33;;;;;;;27.02;12.65;;;4.10;99.90;;;;;;4937069;28;20466;-78
2024/02/13 04:54:59;;;;;;;15.45;7.50;;;4.20;99.90;;;;;;4937254;28;20042;-76
2024/02/13 04:57:25;;;;;;;14.48;7.70;;;4.20;99.90;;;;;;4921919;28;20055;-77
2024/02/13 04:59:51;;;;;;;20.33;9.45;;;4.10;99.90;;;;;;4936808;28;20130;-78
2024/02/13 05:02:21;;;;;;;17.40;9.60;;;4.10;99.90;;;;;;4911676;28;20054;-78
2024/02/13 05:07:31;;;;;;;11.75;5.13;;;4.10;99.90;;;;;;4926326;28;20063;-78
2024/02/13 05:09:57;;;;;;;24.52;13.20;;;4.10;99.90;;;;;;4910547;28;20040;-78
2024/02/13 05:12:24;;;;;;;18.50;9.32;;;4.10;99.90;;;;;;4922026;28;20044;-77
2024/02/13 05:14:50;;;;;;;21.88;9.65;;;4.10;99.90;;;;;;4930748;28;20074;-78
2024/02/13 05:17:15;;;;;;;17.42;8.05;;;4.00;99.90;;;;;;4928717;28;20705;-77
2024/02/13 05:19:41;;;;;;;11.23;6.10;;;4.00;99.90;;;;;;4927554;28;20051;-77
2024/02/13 05:22:07;;;;;;;9.25;5.10;;;4.00;99.90;;;;;;4921282;28;20050;-77
2024/02/13 05:24:35;;;;;;;22.08;6.63;;;4.10;99.90;;;;;;4922763;28;20035;-78
2024/02/13 05:27:02;;;;;;;13.30;6.63;;;4.10;99.90;;;;;;4912341;28;20435;-77
2024/02/13 05:29:28;;;;;;;23.63;10.77;;;4.10;99.90;;;;;;4910709;28;20035;-80
2024/02/13 05:31:54;;;;;;;11.38;5.43;;;4.10;99.90;;;;;;4922966;28;20042;-77
2024/02/13 05:34:20;;;;;;;14.50;8.82;;;4.10;99.90;;;;;;4913560;28;20035;-78
2024/02/13 05:36:46;;;;;;;20.27;9.55;;;4.00;99.90;;;;;;4937935;28;20917;-78
2024/02/13 05:39:12;;;;;;;10.90;4.53;;;4.00;99.90;;;;;;4906005;28;20516;-78
2024/02/13 05:41:40;;;;;;;14.88;8.13;;;4.00;99.90;;;;;;4911179;28;20031;-78
2024/02/13 05:44:06;;;;;;;17.27;9.45;;;4.00;99.90;;;;;;4908292;28;20754;-77
2024/02/13 05:46:31;;;;;;;19.98;8.82;;;3.90;99.90;;;;;;4940363;28;20066;-78
2024/02/13 05:48:59;;;;;;;15.23;7.28;;;4.00;99.90;;;;;;4913310;28;20032;-78
2024/02/13 05:51:26;;;;;;;12.93;6.53;;;4.00;99.90;;;;;;4935726;28;20039;-78
2024/02/13 05:53:51;;;;;;;15.18;6.85;;;4.00;99.90;;;;;;4942688;28;20392;-78
2024/02/13 05:56:17;;;;;;;16.20;8.70;;;4.00;99.90;;;;;;4911957;28;20024;-79
2024/02/13 05:58:43;;;;;;;19.80;6.47;;;4.00;99.90;;;;;;4908656;28;20097;-78
2024/02/13 06:01:12;;;;;;;12.02;5.07;;;3.90;99.90;;;;;;4927443;28;20035;-78
2024/02/13 06:03:38;;;;;;;13.80;5.55;;;3.90;99.90;;;;;;4912072;28;20028;-78
2024/02/13 06:06:05;;;;;;;13.63;6.57;;;4.00;99.90;;;;;;4919657;28;20065;-77
2024/02/13 06:08:30;;;;;;;16.73;7.00;;;4.00;99.90;;;;;;4925196;28;20035;-77
2024/02/13 06:10:58;;;;;;;14.27;6.88;;;4.00;99.90;;;;;;4923596;28;20031;-78
2024/02/13 06:13:26;;;;;;;12.82;5.50;;;3.90;99.90;;;;;;4923213;28;20441;-78
2024/02/13 06:15:54;;;;;;;8.35;4.32;;;4.00;99.90;;;;;;4941041;28;20038;-78
2024/02/13 06:18:21;;;;;;;14.18;5.25;;;4.00;99.90;;;;;;4923973;28;20038;-78
2024/02/13 06:20:47;;;;;;;19.13;8.35;;;3.90;99.90;;;;;;4908523;28;20190;-79
2024/02/13 06:23:12;;;;;;;12.13;5.32;;;3.90;99.90;;;;;;4907244;28;20882;-78
2024/02/13 06:25:38;;;;;;;8.93;4.53;;;3.90;99.90;;;;;;4913394;28;20509;-77
2024/02/13 06:28:04;;;;;;;5.43;3.85;;;4.00;99.90;;;;;;4922025;28;20400;-78
2024/02/13 06:30:31;;;;;;;7.63;4.35;;;4.00;99.90;;;;;;4942908;28;20038;-78
2024/02/13 06:32:57;;;;;;;13.95;6.53;;;4.00;99.90;;;;;;4919826;28;20036;-79
2024/02/13 06:35:23;;;;;;;15.35;7.30;;;3.90;99.90;;;;;;4908486;28;20105;-78
2024/02/13 06:37:48;;;;;;;8.65;3.60;;;3.90;99.90;;;;;;4922879;28;20031;-78
2024/02/13 06:40:14;;;;;;;15.15;8.02;;;3.90;99.90;;;;;;4923588;28;20031;-78
2024/02/13 06:42:40;;;;;;;5.82;3.08;;;3.90;99.90;;;;;;4937459;28;20039;-78
2024/02/13 06:45:09;;;;;;;6.30;3.53;;;3.90;99.90;;;;;;4911918;28;20166;-78
2024/02/13 06:47:34;;;;;;;17.25;5.40;;;3.90;99.90;;;;;;4930962;28;20575;-78
2024/02/13 06:50:00;;;;;;;15.80;7.78;;;3.90;99.90;;;;;;4910565;28;20170;-77
2024/02/13 06:52:25;;;;;;;13.13;4.50;;;3.90;99.90;;;;;;4930210;28;20116;-77
2024/02/13 06:54:51;;;;;;;16.27;5.78;;;4.00;99.90;;;;;;4911561;28;20222;-78
2024/02/13 06:57:18;;;;;;;9.60;5.25;;;4.00;99.90;;;;;;4929785;28;20412;-78
2024/02/13 06:59:43;;;;;;;16.27;5.45;;;4.00;99.90;;;;;;4912612;28;20468;-77
2024/02/13 07:02:10;;;;;;;6.47;3.17;;;4.00;99.90;;;;;;4912962;28;20110;-78
2024/02/13 07:04:36;;;;;;;9.40;3.75;;;4.00;99.90;;;;;;4928465;28;20039;-78
2024/02/13 07:07:05;;;;;;;7.97;3.65;;;4.00;99.90;;;;;;4930512;28;20030;-78
2024/02/13 07:09:31;;;;;;;5.55;3.70;;;4.00;99.90;;;;;;4916337;28;20493;-78
2024/02/13 07:11:59;;;;;;;12.88;5.03;;;4.00;99.90;;;;;;4932395;28;20036;-78
2024/02/13 07:14:27;;;;;;;4.57;3.55;;;4.00;99.90;;;;;;4926563;28;20047;-79
2024/02/13 07:16:53;;;;;;;12.65;4.72;;;4.10;99.90;;;;;;4926817;28;20470;-78
2024/02/13 07:19:18;;;;;;;8.38;3.40;;;4.10;99.90;;;;;;4944053;28;20038;-78
2024/02/13 07:21:44;;;;;;;14.82;6.47;;;4.10;99.90;;;;;;4916462;28;20440;-78
2024/02/13 07:24:10;;;;;;;16.17;6.03;;;4.10;99.90;;;;;;4930892;28;20038;-78
2024/02/13 07:26:36;;;;;;;8.95;5.32;;;4.10;99.90;;;;;;4925372;28;20374;-78
2024/02/13 07:29:01;;;;;;;9.45;4.68;;;4.10;99.90;;;;;;4923914;28;20047;-78
2024/02/13 07:31:31;;;;;;;10.02;5.20;;;4.20;99.90;;;;;;4924407;28;20036;-78
2024/02/13 07:33:57;;;;;;;5.30;2.67;;;4.20;99.90;;;;;;4927554;28;20047;-77
2024/02/13 07:36:22;;;;;;;5.10;2.97;;;4.20;99.90;;;;;;4926081;28;20082;-78
2024/02/13 07:38:48;;;;;;;9.82;3.83;;;4.30;99.90;;;;;;4925735;28;20126;-78
2024/02/13 07:41:14;;;;;;;12.07;3.20;;;4.30;99.90;;;;;;4911586;28;20087;-78
2024/02/13 07:43:40;;;;;;;12.30;4.90;;;4.30;99.90;;;;;;4914913;28;20564;-78
2024/02/13 07:46:06;;;;;;;8.52;4.88;;;4.30;99.90;;;;;;4927480;28;20035;-78
2024/02/13 07:48:33;;;;;;;10.98;3.22;;;4.30;99.90;;;;;;4941465;28;20040;-78
2024/02/13 07:51:00;;;;;;;5.35;3.45;;;4.30;99.90;;;;;;4943247;28;20035;-78
2024/02/13 07:53:26;;;;;;;8.95;3.78;;;4.40;99.90;;;;;;4924562;28;20038;-78
2024/02/13 07:55:51;;;;;;;10.13;4.43;;;4.40;99.90;;;;;;4911901;28;20409;-78
2024/02/13 07:58:17;;;;;;;9.85;4.72;;;4.40;99.90;;;;;;4909820;28;20130;-78
2024/02/13 08:00:44;;;;;;;8.27;4.25;;;4.40;99.90;;;;;;4943174;28;20563;-78
2024/02/13 08:03:17;;;;;;;1.98;1.50;;;4.40;99.90;;;;;;4924825;28;20058;-78
2024/02/13 08:05:45;;;;;;;16.33;5.15;;;4.30;99.90;;;;;;4926891;28;20755;-78
2024/02/13 08:08:11;;;;;;;23.55;3.17;;;4.40;99.90;;;;;;4921491;28;20633;-78
2024/02/13 08:10:38;;;;;;;8.07;3.08;;;4.40;99.90;;;;;;4896156;28;20408;-78
2024/02/13 08:13:04;;;;;;;8.57;2.42;;;4.40;99.90;;;;;;4908938;28;20039;-77
2024/02/13 08:15:30;;;;;;;11.18;2.63;;;4.50;99.90;;;;;;4920190;28;20527;-78
2024/02/13 08:17:56;;;;;;;6.97;2.70;;;4.50;99.90;;;;;;4921738;28;20465;-78
2024/02/13 08:20:21;;;;;;;10.40;3.45;;;4.50;99.90;;;;;;4911273;29;20053;-78
2024/02/13 08:22:47;;;;;;;6.93;3.65;;;4.50;99.90;;;;;;4909184;28;20114;-78
2024/02/13 08:25:13;;;;;;;5.82;3.85;;;4.60;99.90;;;;;;4910709;28;20429;-78
2024/02/13 08:27:38;;;;;;;9.70;4.40;;;4.60;99.90;;;;;;4915053;28;20039;-78
2024/02/13 08:30:10;;;;;;;11.25;4.45;;;4.70;99.90;;;;;;4940366;28;20118;-78
2024/02/13 08:32:42;;;;;;;3.80;2.03;;;4.70;99.90;;;;;;4922781;28;20039;-78
2024/02/13 08:35:08;;;;;;;3.65;2.03;;;4.70;99.90;;;;;;4912005;28;20094;-78
2024/02/13 08:37:37;;;;;;;14.88;3.58;;;4.90;99.90;;;;;;4908657;28;20095;-77
2024/02/13 08:40:04;;;;;;;7.40;1.83;;;5.00;99.90;;;;;;4908793;28;20039;-78
2024/02/13 08:42:30;;;;;;;9.07;3.53;;;5.00;99.90;;;;;;4909564;28;20035;-78
2024/02/13 08:44:57;;;;;;;6.05;2.85;;;5.10;99.90;;;;;;4908615;28;20139;-78
2024/02/13 08:47:23;;;;;;;6.97;2.97;;;5.10;99.90;;;;;;4909856;28;20587;-78
2024/02/13 08:49:49;;;;;;;7.95;2.35;;;5.20;99.90;;;;;;4924665;28;20052;-77
2024/02/13 08:52:15;;;;;;;7.75;3.42;;;5.20;99.90;;;;;;4907302;28;20038;-78
2024/02/13 08:54:41;;;;;;;6.53;2.70;;;5.30;99.90;;;;;;4929364;28;20044;-78
2024/02/13 08:57:06;;;;;;;10.52;3.00;;;5.40;99.90;;;;;;4921956;28;20449;-78
2024/02/13 08:59:32;;;;;;;4.03;1.48;;;5.40;99.90;;;;;;4910474;28;20070;-77
2024/02/13 09:01:58;;;;;;;2.92;2.20;;;5.40;99.90;;;;;;4938810;28;20086;-78
2024/02/13 09:04:23;;;;;;;5.15;1.75;;;5.50;99.90;;;;;;4907746;28;20036;-78
2024/02/13 09:06:49;;;;;;;6.72;3.22;;;5.60;99.90;;;;;;4935339;28;20545;-79
2024/02/13 09:09:15;;;;;;;8.20;2.92;;;5.60;99.90;;;;;;4941699;28;20035;-78
2024/02/13 09:11:41;;;;;;;3.97;2.65;;;5.70;99.90;;;;;;4923951;28;20047;-78
2024/02/13 09:14:07;;;;;;;3.85;1.67;;;5.70;99.90;;;;;;4922439;28;20497;-79
2024/02/13 09:16:32;;;;;;;6.10;3.25;;;5.90;99.90;;;;;;4918079;28;20035;-78
2024/02/13 09:18:58;;;;;;;7.82;3.03;;;5.80;99.90;;;;;;4920757;28;20035;-78
2024/02/13 09:21:24;;;;;;;5.82;2.50;;;5.90;99.90;;;;;;4921183;28;20497;-78
2024/02/13 09:23:51;;;;;;;10.90;1.90;;;5.80;99.90;;;;;;4937705;28;20441;-77
2024/02/13 09:26:17;;;;;;;9.23;2.90;;;6.00;99.90;;;;;;4921258;28;20541;-78
2024/02/13 09:28:43;;;;;;;3.92;1.80;;;6.10;99.90;;;;;;4917363;28;20031;-78
2024/02/13 09:31:09;;;;;;;4.53;1.80;;;6.30;99.90;;;;;;4904367;28;20031;-78
2024/02/13 09:33:34;;;;;;;3.13;2.17;;;6.20;99.90;;;;;;4919009;28;20093;-78
2024/02/13 09:36:00;;;;;;;5.43;1.60;;;6.40;99.90;;;;;;4909004;28;20042;-78
2024/02/13 09:38:26;;;;;;;14.68;4.40;;;6.60;99.90;;;;;;4904112;28;20024;-78
2024/02/13 09:40:51;;;;;;;4.22;2.05;;;6.70;99.90;;;;;;4921673;28;20308;-78
2024/02/13 09:43:17;;;;;;;2.90;1.60;;;6.80;99.90;;;;;;4925170;28;20039;-79
2024/02/13 09:45:44;;;;;;;8.70;2.53;;;6.80;99.90;;;;;;4910805;28;20028;-78
2024/02/13 09:48:20;;;;;;;6.18;2.38;;;7.00;99.90;;;;;;4904722;28;20547;-78
2024/02/13 09:50:46;;;;;;;8.32;1.70;;;7.10;99.90;;;;;;4925279;28;20404;-78
2024/02/13 09:53:26;;;;;;;10.57;2.65;;;7.10;99.90;;;;;;4905461;28;20042;-78
2024/02/13 09:55:57;;;;;;;9.73;1.90;;;7.30;99.90;;;;;;4905367;28;20511;-77
2024/02/13 09:58:23;;;;;;;5.60;1.50;;;7.40;99.90;;;;;;4905160;28;20440;-78
2024/02/13 10:00:48;;;;;;;4.60;1.67;;;7.60;99.90;;;;;;4906307;28;20078;-78
2024/02/13 10:03:14;;;;;;;2.75;1.77;;;7.80;99.90;;;;;;4925336;28;20074;-78
2024/02/13 10:05:39;;;;;;;6.32;2.42;;;7.80;99.90;;;;;;4925473;28;20034;-78
2024/02/13 10:08:07;;;;;;;2.67;1.65;;;7.80;99.90;;;;;;4944170;28;20813;-78
2024/02/13 10:10:33;;;;;;;8.82;2.05;;;8.00;99.90;;;;;;4919865;28;20458;-78
2024/02/13 10:13:00;;;;;;;4.85;2.15;;;8.00;99.90;;;;;;4935379;28;20027;-79
2024/02/13 10:15:39;;;;;;;3.65;1.10;;;8.00;99.90;;;;;;4923385;28;20023;-78
2024/02/13 10:18:11;;;;;;;2.17;1.15;;;8.00;99.90;;;;;;4925416;28;20039;-78
2024/02/13 10:20:37;;;;;;;5.00;1.90;;;8.10;99.90;;;;;;4936115;28;20087;-78
2024/02/13 10:23:04;;;;;;;2.33;1.15;;;8.20;99.90;;;;;;4907567;28;20509;-78
2024/02/13 10:25:33;;;;;;;5.35;2.30;;;8.40;99.90;;;;;;4925553;28;20552;-78
2024/02/13 10:28:01;;;;;;;5.50;2.20;;;8.70;99.90;;;;;;4907050;28;20370;-79
2024/02/13 10:30:30;;;;;;;4.88;1.80;;;8.50;99.90;;;;;;4905051;28;20401;-78
2024/02/13 10:33:00;;;;;;;8.13;2.30;;;8.70;99.90;;;;;;4909781;28;20094;-77
2024/02/13 10:35:25;;;;;;;3.53;1.75;;;8.90;99.90;;;;;;4923835;28;20042;-78
2024/02/13 10:37:52;;;;;;;4.72;2.33;;;8.80;99.90;;;;;;4920949;28;20065;-78
2024/02/13 10:40:22;;;;;;;3.13;2.17;;;8.90;99.90;;;;;;4926438;28;20367;-78
2024/02/13 10:42:49;;;;;;;7.13;1.83;;;8.80;99.90;;;;;;4918181;28;20449;-78
2024/02/13 10:45:28;;;;;;;4.03;1.23;;;8.80;99.90;;;;;;4939583;28;20035;-79
2024/02/13 10:48:06;;;;;;;5.97;2.22;;;8.80;99.90;;;;;;4924695;28;20071;-78
2024/02/13 10:50:33;;;;;;;5.03;1.83;;;8.90;99.90;;;;;;4922583;28;20040;-78
2024/02/13 10:52:59;;;;;;;3.42;1.73;;;8.90;99.90;;;;;;4921367;28;20549;-79
2024/02/13 10:55:25;;;;;;;4.85;1.90;;;9.00;99.90;;;;;;4919400;28;20403;-80
2024/02/13 10:57:51;;;;;;;3.25;2.20;;;9.20;99.90;;;;;;4922687;28;20405;-78
2024/02/13 11:00:20;;;;;;;4.35;1.67;;;9.20;99.90;;;;;;4911674;28;20043;-78
2024/02/13 11:02:47;;;;;;;3.28;1.90;;;9.20;99.90;;;;;;4939506;28;20042;-77
2024/02/13 11:05:13;;;;;;;2.50;1.45;;;9.30;99.90;;;;;;4905756;28;20505;-78
2024/02/13 11:07:39;;;;;;;6.68;1.45;;;9.40;99.90;;;;;;4923923;28;20516;-78
2024/02/13 11:10:08;;;;;;;7.72;1.85;;;9.50;99.90;;;;;;4932081;28;20031;-78
2024/02/13 11:12:37;;;;;;;4.40;1.55;;;9.50;99.90;;;;;;4925539;28;20680;-78
2024/02/13 11:15:18;;;;;;;1.80;1.00;;;9.70;99.90;;;;;;4922543;28;20119;-78
2024/02/13 11:18:05;;;;;;;6.63;1.38;;;9.80;99.90;;;;;;4909549;28;20494;-77
2024/02/13 11:20:30;;;;;;;5.15;1.58;;;9.80;99.90;;;;;;4936505;28;20043;-79
2024/02/13 11:22:59;;;;;;;1.58;0.98;;;10.20;99.90;;;;;;4906184;28;20039;-79
2024/02/13 11:25:28;;;;;;;4.80;1.10;;;10.40;99.90;;;;;;4952113;28;20405;-79
2024/02/13 11:28:03;;;;;;;4.07;0.60;;;10.50;99.90;;;;;;4908785;28;20035;-78
2024/02/13 11:30:29;;;;;;;4.03;0.93;;;10.70;99.90;;;;;;4924684;28;20031;-78
2024/02/13 11:32:58;;;;;;;3.28;0.95;;;10.80;99.90;;;;;;4928217;28;20054;-79
2024/02/13 11:35:30;;;;;;;5.18;0.98;;;10.90;99.90;;;;;;4944578;28;20521;-79
2024/02/13 11:38:01;;;;;;;3.80;0.88;;;11.00;99.90;;;;;;4943086;28;20089;-79
2024/02/13 11:40:26;;;;;;;1.02;0.80;;;11.10;99.90;;;;;;4924500;28;20042;-79
2024/02/13 11:42:52;;;;;;;4.03;1.30;;;11.10;99.90;;;;;;4941631;28;20039;-78
2024/02/13 11:45:21;;;;;;;2.60;0.77;;;10.90;99.90;;;;;;4942438;28;20039;-78
2024/02/13 11:47:49;;;;;;;2.40;0.88;;;11.10;99.90;;;;;;4926577;28;20560;-78
2024/02/13 11:50:16;;;;;;;2.35;0.85;;;11.10;99.90;;;;;;4920554;28;20073;-78
2024/02/13 11:52:43;;;;;;;4.30;0.80;;;11.20;99.90;;;;;;4941860;28;20341;-78
2024/02/13 11:55:09;;;;;;;1.90;0.93;;;11.20;99.90;;;;;;4943179;28;20489;-78
2024/02/13 11:57:34;;;;;;;0.47;0.47;;;11.30;99.90;;;;;;4923286;28;20056;-78
2024/02/13 12:00:01;;;;;;;5.57;1.30;;;11.40;99.90;;;;;;4922764;28;20078;-79
2024/02/13 12:02:28;;;;;;;2.05;0.40;;;11.40;99.90;;;;;;4910898;28;20806;-80
2024/02/13 12:04:55;;;;;;;6.22;0.82;;;11.50;99.90;;;;;;4924825;28;20050;-79
2024/02/13 12:07:21;;;;;;;3.10;0.88;;;11.40;99.90;;;;;;4913199;28;20489;-78
2024/02/13 12:09:52;;;;;;;0.55;0.55;;;11.40;99.90;;;;;;4926197;28;20489;-79
2024/02/13 12:12:18;;;;;;;4.70;1.20;;;11.50;99.90;;;;;;4908410;28;20111;-79
2024/02/13 12:14:43;;;;;;;2.42;0.40;;;11.90;99.90;;;;;;4913577;28;20594;-78
2024/02/13 12:17:12;;;;;;;1.98;0.52;;;12.00;99.90;;;;;;4911511;29;20849;-80
2024/02/13 12:19:41;;;;;;;4.53;0.75;;;12.10;99.90;;;;;;4921662;28;20042;-79
2024/02/13 12:22:15;;;;;;;8.70;0.40;;;12.20;99.90;;;;;;4925552;28;20058;-78
2024/02/13 12:24:45;;;;;;;3.45;0.80;;;12.30;99.90;;;;;;4924151;28;20444;-79
2024/02/13 12:27:12;;;;;;;4.32;0.40;;;12.40;99.90;;;;;;4908554;28;20040;-78
2024/02/13 12:29:39;;;;;;;1.95;1.20;;;12.10;99.90;;;;;;4911057;28;20034;-79
2024/02/13 12:32:07;;;;;;;6.32;0.85;;;12.00;99.90;;;;;;4918703;28;20031;-78
2024/02/13 12:34:33;;;;;;;3.90;0.80;;;11.90;99.90;;;;;;4911454;28;20086;-78
2024/02/13 12:37:00;;;;;;;3.42;0.40;;;11.90;99.90;;;;;;4905915;28;20038;-79
2024/02/13 12:39:26;;;;;;;0.90;0.60;;;12.00;99.90;;;;;;4909643;28;20361;-79
2024/02/13 12:41:52;;;;;;;3.10;0.68;;;12.10;99.90;;;;;;4920934;28;20059;-78
2024/02/13 12:44:20;;;;;;;6.13;0.77;;;12.30;99.90;;;;;;4910854;28;20086;-79
2024/02/13 12:46:48;;;;;;;2.30;0.63;;;12.30;99.90;;;;;;4921626;28;20065;-80
2024/02/13 12:49:16;;;;;;;0.98;0.60;;;12.30;99.90;;;;;;4911925;28;20031;-77
2024/02/13 12:51:44;;;;;;;3.20;1.05;;;12.20;99.90;;;;;;4923389;28;20027;-79